Time;durP1;ratioP1;P1;durP2;ratioP2;P2;SDS_P1;SDS_P2;PMS_P1;PMS_P2;Temp;Humidity;BMP_temperature;BMP_pressure;BME280_temperature;BME280_humidity;BME280_pressure;Samples;Min_cycle;Max_cycle;Signal;HPM_P1;HPM_P2
2021/01/02 00:02:28;;;;;;;14.10;6.95;;;;;;;24.19;14.49;97865.25;5106755;28;20089;-81
2021/01/02 00:05:03;;;;;;;21.17;10.85;;;;;;;24.57;14.13;97861.44;5106039;28;20046;-80
2021/01/02 00:08:00;;;;;;;15.43;7.75;;;;;;;23.41;15.34;97858.69;5109682;28;20504;-81
2021/01/02 00:10:48;;;;;;;25.38;10.20;;;;;;;21.86;16.72;97862.50;5096301;28;20024;-81
2021/01/02 00:13:29;;;;;;;33.58;14.85;;;;;;;20.27;18.17;97869.34;5061460;28;20491;-81
2021/01/02 00:16:01;;;;;;;;;;;;;;;20.89;17.90;97860.66;5104467;28;20404;-81
2021/01/02 00:18:30;;;;;;;;;;;;;;;22.43;16.35;97867.88;5110158;28;19915;-80
2021/01/02 00:21:16;;;;;;;;;;;;;;;23.42;15.32;97867.91;5104387;28;19916;-81
2021/01/02 00:23:52;;;;;;;;;;;;;;;23.23;15.45;97875.88;5102739;28;19920;-80
2021/01/02 00:26:27;;;;;;;;;;;;;;;22.87;15.83;97871.47;5102105;28;19919;-80
2021/01/02 00:28:53;;;;;;;;;;;;;;;21.21;17.15;97869.41;5097403;28;19965;-80
2021/01/02 00:31:42;;;;;;;;;;;;;;;22.30;16.20;97864.13;5089523;28;19916;-80
2021/01/02 00:34:26;;;;;;;;;;;;;;;20.50;17.83;97874.25;5093285;28;20015;-80
2021/01/02 00:36:55;;;;;;;;;;;;;;;21.19;17.07;97871.06;5102744;28;20306;-80
2021/01/02 00:39:35;;;;;;;;;;;;;;;21.86;16.40;97878.47;5107348;28;20334;-80
2021/01/02 00:42:01;;;;;;;;;;;;;;;22.18;16.08;97880.72;5102512;28;19981;-81
2021/01/02 00:44:29;;;;;;;;;;;;;;;22.93;15.33;97878.13;5109186;28;19966;-80
2021/01/02 00:46:56;;;;;;;;;;;;;;;22.65;15.55;97873.88;5105699;28;19916;-80
2021/01/02 00:49:23;;;;;;;;;;;;;;;23.24;15.14;97882.28;5104266;28;20027;-80
2021/01/02 00:52:00;;;;;;;;;;;;;;;23.05;15.37;97883.88;5102559;28;19961;-80
2021/01/02 00:54:39;;;;;;;;;;;;;;;23.58;14.64;97896.75;5096518;28;20283;-80
2021/01/02 00:57:13;;;;;;;;;;;;;;;24.10;14.34;97895.94;5099049;28;20283;-80
2021/01/02 00:59:42;;;;;;;;;;;;;;;24.45;14.00;97897.84;5097280;28;19916;-81
2021/01/02 01:02:23;;;;;;;;;;;;;;;24.50;13.72;97900.91;5093756;28;19912;-80
2021/01/02 01:05:01;;;;;;;;;;;;;;;24.67;13.71;97896.81;5103739;28;19916;-80
2021/01/02 01:07:27;;;;;;;;;;;;;;;24.36;13.81;97904.09;5095459;28;19916;-80
2021/01/02 01:09:56;;;;;;;;;;;;;;;23.75;14.19;97903.97;5095859;28;19968;-80
2021/01/02 01:12:26;;;;;;;;;;;;;;;23.05;15.04;97894.28;5094733;28;19923;-81
2021/01/02 01:14:52;;;;;;;;;;;;;;;20.84;16.95;97897.38;5108191;28;20398;-80
2021/01/02 01:17:23;;;;;;;;;;;;;;;21.83;15.93;97893.25;5101259;28;20323;-80
2021/01/02 01:19:53;;;;;;;;;;;;;;;18.69;19.23;97887.03;5100469;28;20386;-80
2021/01/02 01:22:23;;;;;;;;;;;;;;;20.09;17.77;97876.25;5107159;28;19923;-80
2021/01/02 01:24:59;;;;;;;;;;;;;;;21.05;16.89;97874.81;5109626;28;19916;-80
2021/01/02 01:27:29;;;;;;;;;;;;;;;20.66;17.24;97878.06;5108984;28;19920;-80
2021/01/02 01:29:55;;;;;;;;;;;;;;;22.20;15.87;97881.88;5102327;28;20393;-80
2021/01/02 01:32:22;;;;;;;;;;;;;;;20.68;17.09;97877.66;5108624;28;19916;-80
2021/01/02 01:34:53;;;;;;;;;;;;;;;21.97;15.80;97877.09;5100918;28;19969;-80
2021/01/02 01:37:21;;;;;;;;;;;;;;;22.86;14.82;97881.88;5102610;27;19920;-80
2021/01/02 01:39:51;;;;;;;;;;;;;;;23.03;14.91;97880.72;5114186;28;20294;-80
2021/01/02 01:42:17;;;;;;;;;;;;;;;23.55;14.00;97880.03;5106510;27;19923;-81
2021/01/02 01:44:45;;;;;;;;;;;;;;;23.53;14.46;97876.84;5105197;28;19915;-80
2021/01/02 01:47:12;;;;;;;;;;;;;;;22.63;15.12;97879.94;5107393;28;19965;-80
2021/01/02 01:49:38;;;;;;;;;;;;;;;23.33;14.68;97900.06;5105477;28;19962;-80
2021/01/02 01:52:12;;;;;;;;;;;;;;;23.72;14.26;97885.19;5113305;28;19947;-80
2021/01/02 01:54:58;;;;;;;;;;;;;;;22.72;15.26;97898.16;5099716;28;20024;-80
2021/01/02 01:57:25;;;;;;;;;;;;;;;23.09;15.02;97898.59;5105832;28;19916;-80
2021/01/02 01:59:57;;;;;;;;;;;;;;;23.04;15.00;97893.50;5105370;28;20351;-80
2021/01/02 02:02:29;;;;;;;;;;;;;;;22.97;15.25;97893.63;5102054;28;19919;-80
2021/01/02 02:05:03;;;;;;;;;;;;;;;23.04;15.09;97887.09;5100058;28;19911;-80
2021/01/02 02:07:39;;;;;;;;;;;;;;;23.08;15.15;97893.44;5099229;28;19935;-80
2021/01/02 02:10:05;;;;;;;;;;;;;;;22.81;15.49;97904.75;5110481;28;19912;-80
2021/01/02 02:12:32;;;;;;;;;;;;;;;23.10;15.14;97896.59;5095951;28;19999;-80
2021/01/02 02:14:58;;;;;;;;;;;;;;;22.57;15.69;97895.59;5106407;28;20031;-80
2021/01/02 02:17:25;;;;;;;;;;;;;;;22.92;15.63;97898.97;5099486;28;19933;-80
2021/01/02 02:19:56;;;;;;;;;;;;;;;21.88;16.36;97890.00;5107109;28;20022;-80
2021/01/02 02:22:26;;;;;;;;;;;;;;;22.12;16.12;97886.03;5089518;28;20278;-80
2021/01/02 02:24:53;;;;;;;;;;;;;;;20.47;17.67;97884.25;5110705;28;19968;-80
2021/01/02 02:27:23;;;;;;;;;;;;;;;21.16;17.39;97885.88;5103956;28;19922;-80
2021/01/02 02:30:04;;;;;;;;;;;;;;;20.85;17.54;97876.66;5097988;28;19916;-80
2021/01/02 02:32:34;;;;;;;;;;;;;;;20.71;17.76;97870.44;5102581;28;20363;-80
2021/01/02 02:35:19;;;;;;;;;;;;;;;21.59;17.32;97880.44;5099497;28;19969;-80
2021/01/02 02:37:46;;;;;;;;;;;;;;;22.16;16.44;97878.34;5108209;28;19955;-81
2021/01/02 02:40:17;;;;;;;;;;;;;;;21.70;16.89;97876.31;5105215;28;19919;-80
2021/01/02 02:42:46;;;;;;;;;;;;;;;19.39;19.22;97881.19;5108989;28;19960;-80
2021/01/02 02:45:13;;;;;;;;;;;;;;;17.94;21.25;97884.38;5107464;28;20401;-80
2021/01/02 02:47:41;;;;;;;;;;;;;;;18.77;20.63;97883.81;5103414;28;19998;-80
2021/01/02 02:50:14;;;;;;;;;;;;;;;20.68;18.62;97874.84;5098586;28;20018;-80
2021/01/02 02:52:42;;;;;;;;;;;;;;;21.01;18.24;97876.84;5098914;28;19923;-80
2021/01/02 02:55:09;;;;;;;;;;;;;;;21.02;18.08;97875.66;5106560;28;19916;-79
2021/01/02 02:57:38;;;;;;;;;;;;;;;21.47;17.96;97883.84;5099680;28;19916;-80
2021/01/02 03:00:05;;;;;;;;;;;;;;;22.57;16.92;97878.78;5106762;28;19912;-80
2021/01/02 03:02:32;;;;;;;;;;;;;;;22.46;16.91;97880.22;5098806;28;19969;-80
2021/01/02 03:05:00;;;;;;;;;;;;;;;22.79;16.64;97884.00;5098182;28;19912;-80
2021/01/02 03:07:26;;;;;;;;;;;;;;;21.68;17.61;97884.28;5104253;28;19911;-80
2021/01/02 03:09:52;;;;;;;;;;;;;;;21.73;17.79;97883.03;5095409;28;19926;-80
2021/01/02 03:12:18;;;;;;;;;;;;;;;21.71;17.93;97885.47;5091371;28;19920;-79
2021/01/02 03:14:44;;;;;;;;;;;;;;;19.70;19.70;97891.28;5110303;28;20386;-80
2021/01/02 03:17:10;;;;;;;;;;;;;;;19.41;20.15;97898.25;5108558;28;19916;-80
2021/01/02 03:19:36;;;;;;;;;;;;;;;18.71;21.14;97888.22;5103326;28;19916;-79
2021/01/02 03:22:02;;;;;;;;;;;;;;;17.93;22.19;97887.53;5108505;28;20424;-80
2021/01/02 03:24:28;;;;;;;;;;;;;;;17.75;22.67;97878.41;5095064;28;19938;-79
2021/01/02 03:26:54;;;;;;;;;;;;;;;20.14;19.68;97879.38;5109513;28;19961;-79
2021/01/02 03:29:20;;;;;;;;;;;;;;;18.95;20.98;97883.75;5100071;28;19935;-79
2021/01/02 03:31:46;;;;;;;;;;;;;;;16.61;23.72;97889.59;5105101;28;19916;-79
2021/01/02 03:34:12;;;;;;;;;;;;;;;17.10;23.49;97887.00;5109397;28;20362;-79
2021/01/02 03:36:38;;;;;;;;;;;;;;;17.34;23.35;97894.59;5098812;28;19943;-79
2021/01/02 03:39:04;;;;;;;;;;;;;;;18.81;21.66;97892.94;5110252;28;20300;-79
2021/01/02 03:41:30;;;;;;;;;;;;;;;18.50;21.62;97886.31;5104201;28;19916;-80
2021/01/02 03:43:56;;;;;;;;;;;;;;;17.95;22.35;97885.16;5107383;28;19923;-80
2021/01/02 03:46:28;;;;;;;;;;;;;;;18.82;21.22;97893.75;5099965;28;19919;-80
2021/01/02 03:48:55;;;;;;;;;;;;;;;18.58;21.49;97884.28;5111466;28;19916;-80
2021/01/02 03:51:21;;;;;;;;;;;;;;;18.29;21.79;97885.53;5104777;28;20011;-80
2021/01/02 03:53:47;;;;;;;;;;;;;;;18.65;21.41;97886.28;5109340;28;20073;-80
2021/01/02 03:56:13;;;;;;;;;;;;;;;16.52;24.42;97890.72;5099355;28;19916;-80
2021/01/02 03:58:39;;;;;;;;;;;;;;;17.98;22.30;97891.91;5108186;28;19923;-80
2021/01/02 04:01:05;;;;;;;;;;;;;;;17.85;22.24;97885.97;5098342;28;19977;-80
2021/01/02 04:03:31;;;;;;;;;;;;;;;19.06;21.06;97879.72;5108672;28;19923;-79
2021/01/02 04:05:57;;;;;;;;;;;;;;;20.02;19.91;97881.88;5107145;28;19922;-80
2021/01/02 04:08:23;;;;;;;;;;;;;;;19.90;19.73;97889.56;5108309;28;19923;-80
2021/01/02 04:10:49;;;;;;;;;;;;;;;19.83;19.98;97886.03;5106657;28;19916;-80
2021/01/02 04:13:15;;;;;;;;;;;;;;;20.53;19.06;97881.81;5080240;28;19928;-80
2021/01/02 04:15:41;;;;;;;;;;;;;;;18.85;21.00;97888.19;5099162;28;19968;-80
2021/01/02 04:18:07;;;;;;;;;;;;;;;18.58;21.50;97893.41;5101912;28;19923;-80
2021/01/02 04:20:34;;;;;;;;;;;;;;;17.28;22.90;97891.41;5109708;28;20014;-80
2021/01/02 04:23:00;;;;;;;;;;;;;;;17.78;22.57;97899.84;5103164;28;19920;-81
2021/01/02 04:25:26;;;;;;;;;;;;;;;18.91;21.11;97891.31;5088012;28;20348;-80
2021/01/02 04:27:52;;;;;;;;;;;;;;;18.40;21.55;97892.66;5103403;28;19915;-80
2021/01/02 04:30:18;;;;;;;;;;;;;;;19.21;20.98;97895.16;5097504;28;20005;-80
2021/01/02 04:32:45;;;;;;;;;;;;;;;20.61;19.57;97897.25;5108633;28;19915;-80
2021/01/02 04:35:11;;;;;;;;;;;;;;;20.82;19.23;97888.63;5104624;28;20375;-80
2021/01/02 04:37:38;;;;;;;;;;;;;;;21.28;18.56;97894.44;5111645;28;19963;-80
2021/01/02 04:40:05;;;;;;;;;;;;;;;21.69;18.24;97885.88;5106915;28;20367;-80
2021/01/02 04:42:31;;;;;;;;;;;;;;;22.57;17.26;97892.78;5097870;28;20012;-80
2021/01/02 04:44:57;;;;;;;;;;;;;;;22.33;17.80;97891.25;5100318;28;19915;-80
2021/01/02 04:47:27;;;;;;;;;;;;;;;21.21;18.50;97893.78;5104122;28;19961;-80
2021/01/02 04:49:53;;;;;;;;;;;;;;;20.95;18.81;97889.69;5114909;28;19916;-81
2021/01/02 04:52:21;;;;;;;;;;;;;;;22.18;17.77;97895.50;5107638;28;19924;-81
2021/01/02 04:54:50;;;;;;;;;;;;;;;22.26;17.59;97910.16;5094122;28;20011;-81
2021/01/02 04:57:17;;;;;;;;;;;;;;;22.39;17.25;97897.13;5108546;28;20330;-81
2021/01/02 04:59:49;;;;;;;;;;;;;;;22.01;17.75;97902.97;5110824;28;20010;-81
2021/01/02 05:02:19;;;;;;;;;;;;;;;21.72;18.00;97901.03;5110528;28;19912;-81
2021/01/02 05:04:48;;;;;;;;;;;;;;;20.51;18.98;97901.72;5110003;28;20279;-81
2021/01/02 05:07:24;;;;;;;;;;;;;;;19.85;20.08;97911.47;5102872;28;19918;-80
2021/01/02 05:09:51;;;;;;;;;;;;;;;20.32;19.63;97909.91;5100312;28;20014;-81
2021/01/02 05:12:30;;;;;;;;;;;;;;;19.58;20.24;97910.50;5104402;28;20018;-80
2021/01/02 05:14:57;;;;;;;;;;;;;;;18.58;21.66;97915.66;5106149;28;20076;-81
2021/01/02 05:17:26;;;;;;;;;;;;;;;18.26;21.98;97911.31;5102041;28;20294;-81
2021/01/02 05:20:12;;;;;;;;;;;;;;;17.83;22.49;97928.00;5109810;28;19923;-80
2021/01/02 05:22:39;;;;;;;;;;;;;;;19.05;21.27;97921.84;5110537;28;19931;-80
2021/01/02 05:25:07;;;;;;;;;;;;;;;19.00;21.39;97925.84;5103614;28;20316;-81
2021/01/02 05:27:33;;;;;;;;;;;;;;;19.69;20.22;97923.13;5102018;28;20028;-81
2021/01/02 05:30:19;;;;;;;;;;;;;;;18.98;21.31;97919.91;5105487;28;19920;-81
2021/01/02 05:32:59;;;;;;;;;;;;;;;19.41;20.57;97923.31;5103719;28;19951;-81
2021/01/02 05:35:25;;;;;;;;;;;;;;;19.66;20.43;97925.94;5096342;28;20010;-81
2021/01/02 05:37:51;;;;;;;;;;;;;;;19.18;21.23;97934.13;5105252;28;19920;-81
2021/01/02 05:40:38;;;;;;;;;;;;;;;20.47;19.57;97931.66;5112155;28;19916;-81
2021/01/02 05:43:04;;;;;;;;;;;;;;;21.06;19.16;97921.06;5112839;28;19920;-81
2021/01/02 05:45:31;;;;;;;;;;;;;;;22.25;17.52;97928.16;5106795;28;20278;-82
2021/01/02 05:47:58;;;;;;;;;;;;;;;22.20;17.66;97925.81;5113827;28;20323;-81
2021/01/02 05:50:24;;;;;;;;;;;;;;;22.11;17.62;97931.16;5102156;28;20395;-82
2021/01/02 05:52:50;;;;;;;;;;;;;;;21.56;18.46;97934.38;5109426;28;19965;-81
2021/01/02 05:55:29;;;;;;;;;;;;;;;21.51;18.62;97932.06;5111470;28;19919;-81
2021/01/02 05:57:55;;;;;;;;;;;;;;;22.72;17.32;97934.53;5113064;28;19920;-81
2021/01/02 06:00:22;;;;;;;;;;;;;;;23.08;16.80;97933.41;5103012;28;19956;-81
2021/01/02 06:02:49;;;;;;;;;;;;;;;23.36;15.98;97934.88;5112866;28;19916;-81
2021/01/02 06:05:15;;;;;;;;;;;;;;;23.70;16.23;97938.13;5113811;28;19912;-80
2021/01/02 06:07:47;;;;;;;;;;;;;;;23.66;16.12;97950.63;5108323;28;19941;-81
2021/01/02 06:10:13;;;;;;;;;;;;;;;21.93;17.60;97943.44;5108973;28;20381;-81
2021/01/02 06:12:40;;;;;;;;;;;;;;;22.87;16.81;97944.25;5104099;28;20002;-82
2021/01/02 06:15:07;;;;;;;;;;;;;;;21.92;17.49;97941.06;5106840;28;19930;-82
2021/01/02 06:17:35;;;;;;;;;;;;;;;22.33;17.49;97943.59;5104844;28;20370;-83
2021/01/02 06:20:03;;;;;;;;;;;;;;;22.89;16.85;97948.19;5109887;28;19915;-84
2021/01/02 06:22:29;;;;;;;;;;;;;;;23.11;16.62;97946.56;5104419;28;19957;-83
2021/01/02 06:24:56;;;;;;;;;;;;;;;23.10;16.34;97953.38;5100323;28;19912;-82
2021/01/02 06:27:22;;;;;;;;;;;;;;;23.41;16.61;97936.38;5103489;28;19912;-83
2021/01/02 06:29:52;;;;;;;;;;;;;;;23.35;16.23;97945.28;5115698;28;19959;-83
2021/01/02 06:32:21;;;;;;;;;;;;;;;22.83;16.67;97943.50;5116268;28;19917;-83
2021/01/02 06:35:06;;;;;;;;;;;;;;;23.13;16.63;97948.91;5097895;28;20330;-82
2021/01/02 06:37:47;;;;;;;;;;;;;;;21.82;18.02;97950.38;5107668;28;20424;-82
2021/01/02 06:40:19;;;;;;;;;;;;;;;21.59;18.61;97947.50;5099253;28;20321;-82
2021/01/02 06:42:54;;;;;;;;;;;;;;;20.98;19.48;97955.06;5107103;28;19920;-82
2021/01/02 06:45:36;;;;;;;;;;;;;;;22.47;17.82;97952.53;5116079;28;20006;-82
2021/01/02 06:48:14;;;;;;;;;;;;;;;23.24;17.01;97950.28;5116230;28;19911;-82
2021/01/02 06:50:40;;;;;;;;;;;;;;;23.41;16.96;97953.97;5116214;28;20008;-82
2021/01/02 06:53:32;;;;;;;;;;;;;;;22.95;17.45;97957.69;5115846;28;19912;-82
2021/01/02 06:56:00;;;;;;;;;;;;;;;22.49;17.88;97957.72;5100058;28;19918;-82
2021/01/02 06:58:37;;;;;;;;;;;;;;;22.49;17.90;97958.50;5115249;28;19915;-82
2021/01/02 07:01:03;;;;;;;;;;;;;;;22.48;17.92;97950.50;5106702;28;19920;-83
2021/01/02 07:03:38;;;;;;;;;;;;;;;22.44;17.92;97955.38;5102615;28;19915;-82
2021/01/02 07:06:33;;;;;;;;;;;;;;;21.77;18.71;97957.25;5098728;28;20397;-82
2021/01/02 07:09:00;;;;;;;;;;;;;;;23.15;17.30;97961.25;5086038;28;19919;-82
2021/01/02 07:11:35;;;;;;;;;;;;;;;23.92;16.78;97961.63;5102352;28;20383;-82
2021/01/02 07:14:08;;;;;;;;;;;;;;;23.76;16.83;97963.59;5120754;28;20393;-83
2021/01/02 07:16:49;;;;;;;;;;;;;;;23.56;17.04;97966.47;5126675;28;19912;-83
2021/01/02 07:19:29;;;;;;;;;;;;;;;22.49;18.15;97972.50;5120530;28;19916;-83
2021/01/02 07:21:55;;;;;;;;;;;;;;;22.95;17.86;97965.28;5114733;28;19922;-83
2021/01/02 07:24:24;;;;;;;;;;;;;;;23.29;17.39;97963.00;5115070;28;19998;-83
2021/01/02 07:27:03;;;;;;;;;;;;;;;24.09;16.74;97975.69;5115319;28;19922;-82
2021/01/02 07:29:32;;;;;;;;;;;;;;;24.92;15.96;97965.59;5093577;28;19955;-82
2021/01/02 07:32:14;;;;;;;;;;;;;;;24.69;16.11;97978.59;5107370;28;19916;-82
2021/01/02 07:34:41;;;;;;;;;;;;;;;25.12;16.00;97986.69;5112694;28;20287;-82
2021/01/02 07:37:09;;;;;;;;;;;;;;;24.54;16.38;97980.19;5095643;28;19915;-82
2021/01/02 07:39:35;;;;;;;;;;;;;;;22.84;17.82;97975.91;5109993;28;19960;-82
2021/01/02 07:42:03;;;;;;;;;;;;;;;20.44;21.05;97988.25;5113424;28;20014;-82
2021/01/02 07:44:29;;;;;;;;;;;;;;;21.35;19.84;97994.13;5114586;28;20386;-82
2021/01/02 07:46:55;;;;;;;;;;;;;;;19.10;22.52;97994.59;5114349;28;19912;-82
2021/01/02 07:49:21;;;;;;;;;;;;;;;21.00;20.87;97997.28;5113502;28;20440;-82
2021/01/02 07:51:48;;;;;;;;;;;;;;;19.58;22.12;97997.59;5114695;28;19963;-82
2021/01/02 07:54:46;;;;;;;;;;;;;;;18.99;22.75;98002.19;5114294;28;19927;-82
2021/01/02 07:57:21;;;;;;;;;;;;;;;18.20;24.17;97993.50;5071308;28;19916;-81
2021/01/02 07:59:47;;;;;;;;;;;;;;;20.37;21.57;97995.91;5094651;28;19962;-80
2021/01/02 08:02:19;;;;;;;;;;;;;;;19.78;22.12;97998.69;5094590;28;20333;-81
2021/01/02 08:04:45;;;;;;;;;;;;;;;19.13;22.86;97998.56;5094143;28;20025;-81
2021/01/02 08:07:11;;;;;;;;;;;;;;;20.09;22.23;98004.47;5111916;28;20006;-81
2021/01/02 08:09:41;;;;;;;;;;;;;;;21.19;20.64;97994.69;5114466;28;20331;-81
2021/01/02 08:12:08;;;;;;;;;;;;;;;21.59;20.35;97993.00;5082412;28;20372;-81
2021/01/02 08:14:35;;;;;;;;;;;;;;;23.00;18.99;97998.38;5093931;28;19912;-81
2021/01/02 08:17:09;;;;;;;;;;;;;;;24.10;17.96;98002.53;5086419;28;19920;-82
2021/01/02 08:19:36;;;;;;;;;;;;;;;23.37;18.48;97995.28;5095971;28;20011;-81
2021/01/02 08:22:03;;;;;;;;;;;;;;;23.90;17.76;97992.13;5113749;28;20395;-81
2021/01/02 08:24:30;;;;;;;;;;;;;;;23.98;17.87;97993.53;5112917;28;20271;-81
2021/01/02 08:26:56;;;;;;;;;;;;;;;24.77;17.10;97987.66;5111311;28;19916;-81
2021/01/02 08:29:23;;;;;;;;;;;;;;;25.37;16.69;97995.22;5111420;28;20383;-81
2021/01/02 08:31:59;;;;;;;;;;;;;;;25.37;16.42;97995.22;5099899;28;19918;-81
2021/01/02 08:34:27;;;;;;;;;;;;;;;24.88;17.05;98012.66;5097342;28;19915;-80
2021/01/02 08:36:57;;;;;;;;;;;;;;;24.94;17.33;98005.28;5097873;28;19919;-80
2021/01/02 08:39:23;;;;;;;;;;;;;;;25.19;16.95;98008.97;5098750;28;20383;-81
2021/01/02 08:41:53;;;;;;;;;;;;;;;23.65;18.05;98014.31;5102374;28;19919;-80
2021/01/02 08:44:32;;;;;;;;;;;;;;;23.01;19.06;98014.75;5105902;28;19916;-82
2021/01/02 08:46:59;;;;;;;;;;;;;;;23.40;18.67;98019.66;5105828;28;19912;-82
2021/01/02 08:49:27;;;;;;;;;;;;;;;21.11;21.20;98023.91;5098996;28;19916;-82
2021/01/02 08:52:12;;;;;;;;;;;;;;;20.32;21.84;98032.59;5105030;28;19994;-82
2021/01/02 08:54:37;;;;;;;;;;;;;;;21.81;20.32;98022.25;5108112;28;19916;-82
2021/01/02 08:57:21;;;;;;;;;;;;;;;21.64;20.50;98019.69;5104902;28;20014;-81
2021/01/02 08:59:47;;;;;;;;;;;;;;;23.43;18.63;98021.59;5079967;28;19963;-81
2021/01/02 09:02:16;;;;;;;;;;;;;;;24.58;17.66;98031.41;5112535;28;19927;-83
2021/01/02 09:04:42;;;;;;;;;;;;;;;24.53;17.43;98031.94;5110543;28;19923;-80
2021/01/02 09:07:08;;;;;;;;;;;;;;;24.24;17.77;98027.44;5107295;28;19915;-80
2021/01/02 09:09:34;;;;;;;;;;;;;;;24.44;17.48;98033.78;5106224;28;20275;-81
2021/01/02 09:12:04;;;;;;;;;;;;;;;24.53;17.84;98029.13;5089477;28;20383;-80
2021/01/02 09:14:30;;;;;;;;;;;;;;;23.63;18.58;98033.56;5087325;28;19916;-81
2021/01/02 09:16:59;;;;;;;;;;;;;;;24.58;17.65;98044.66;5088092;28;20326;-81
2021/01/02 09:19:25;;;;;;;;;;;;;;;24.68;17.52;98038.78;5087261;28;19922;-81
2021/01/02 09:21:51;;;;;;;;;;;;;;;24.38;17.98;98041.16;5085140;28;19921;-80
2021/01/02 09:24:21;;;;;;;;;;;;;;;24.43;17.71;98047.03;5079520;28;20350;-82
2021/01/02 09:26:47;;;;;;;;;;;;;;;24.23;17.97;98048.31;5077193;28;19920;-81
2021/01/02 09:29:16;;;;;;;;;;;;;;;21.65;20.57;98052.81;5092991;28;19920;-80
2021/01/02 09:31:42;;;;;;;;;;;;;;;21.22;21.35;98057.28;5089857;28;19955;-80
2021/01/02 09:34:09;;;;;;;;;;;;;;;21.54;20.94;98056.94;5095726;28;19951;-80
2021/01/02 09:36:35;;;;;;;;;;;;;;;22.67;19.87;98056.97;5096838;28;19958;-80
2021/01/02 09:39:01;;;;;;;;;;;;;;;23.49;19.16;98055.50;5084609;28;19917;-80
2021/01/02 09:41:28;;;;;;;;;;;;;;;24.67;17.87;98048.44;5079503;28;19923;-80
2021/01/02 09:43:55;;;;;;;;;;;;;;;25.01;17.60;98055.66;5088248;28;20375;-80
2021/01/02 09:46:22;;;;;;;;;;;;;;;25.66;17.14;98059.09;5086283;28;19923;-81
2021/01/02 09:48:49;;;;;;;;;;;;;;;26.04;16.59;98049.50;5086999;28;19920;-80
2021/01/02 09:51:15;;;;;;;;;;;;;;;26.15;16.42;98045.59;5088618;28;19923;-80
2021/01/02 09:53:41;;;;;;;;;;;;;;;26.52;16.07;98037.16;5093020;28;19928;-80
2021/01/02 09:56:07;;;;;;;;;;;;;;;27.07;15.74;98041.38;5090176;28;19923;-80
2021/01/02 09:58:33;;;;;;;;;;;;;;;25.70;16.67;98045.72;5092500;28;20019;-80
2021/01/02 10:01:00;;;;;;;;;;;;;;;25.57;17.21;98056.16;5092055;28;20011;-79
2021/01/02 10:03:25;;;;;;;;;;;;;;;25.95;16.59;98057.81;5082535;28;19916;-80
2021/01/02 10:05:51;;;;;;;;;;;;;;;26.51;16.57;98052.47;5092005;28;20371;-80
2021/01/02 10:08:17;;;;;;;;;;;;;;;26.57;16.16;98052.72;5087742;28;19916;-80
2021/01/02 10:10:43;;;;;;;;;;;;;;;26.44;16.65;98038.63;5087011;28;19923;-80
2021/01/02 10:13:09;;;;;;;;;;;;;;;26.14;17.06;98033.56;5091957;28;20384;-80
2021/01/02 10:15:35;;;;;;;;;;;;;;;26.38;16.50;98034.00;5109793;28;19965;-80
2021/01/02 10:18:02;;;;;;;;;;;;;;;26.48;16.54;98032.91;5100678;28;19919;-80
2021/01/02 10:20:28;;;;;;;;;;;;;;;25.81;16.80;98020.91;5110166;28;19961;-81
2021/01/02 10:22:54;;;;;;;;;;;;;;;26.00;16.81;98017.88;5107841;28;20383;-81
2021/01/02 10:25:20;;;;;;;;;;;;;;;25.77;17.07;98011.75;5107445;27;19928;-81
2021/01/02 10:27:46;;;;;;;;;;;;;;;24.14;18.60;98020.06;5110447;28;19919;-81
2021/01/02 10:30:13;;;;;;;;;;;;;;;24.46;18.51;98022.91;5107730;28;19919;-82
2021/01/02 10:32:39;;;;;;;;;;;;;;;25.25;18.23;98026.09;5112602;28;19976;-81
2021/01/02 10:35:06;;;;;;;;;;;;;;;23.96;19.39;98010.03;5105183;28;19920;-81
2021/01/02 10:37:32;;;;;;;;;;;;;;;23.86;19.53;98013.06;5096733;28;20003;-81
2021/01/02 10:39:58;;;;;;;;;;;;;;;24.27;19.79;98018.94;5113182;28;20387;-81
2021/01/02 10:42:29;;;;;;;;;;;;;;;24.48;19.76;98012.03;5111570;28;19954;-81
2021/01/02 10:44:55;;;;;;;;;;;;;;;23.58;21.39;98008.84;5107088;28;19981;-81
2021/01/02 10:47:26;;;;;;;;;;;;;;;24.29;19.90;98002.47;5105896;28;20371;-81
2021/01/02 10:49:52;;;;;;;;;;;;;;;23.84;20.14;97991.06;5101718;28;19967;-81
2021/01/02 10:52:19;;;;;;;;;;;;;;;25.26;19.32;97994.75;5107586;28;19916;-82
2021/01/02 10:54:45;;;;;;;;;;;;;;;26.92;18.24;97995.22;5087232;28;19963;-81
2021/01/02 10:57:12;;;;;;;;;;;;;;;27.84;16.53;97983.41;5107045;28;19915;-81
2021/01/02 10:59:42;;;;;;;;;;;;;;;28.38;16.56;97988.53;5100217;28;19923;-81
2021/01/02 11:02:08;;;;;;;;;;;;;;;28.64;15.89;97982.19;5110734;28;19922;-81
2021/01/02 11:04:34;;;;;;;;;;;;;;;28.61;15.86;97979.53;5099094;28;19915;-81
2021/01/02 11:07:00;;;;;;;;;;;;;;;28.80;15.63;97977.53;5113747;28;19924;-81
2021/01/02 11:09:26;;;;;;;;;;;;;;;28.68;16.09;97974.34;5108866;28;20276;-81
2021/01/02 11:11:52;;;;;;;;;;;;;;;28.51;16.26;97969.41;5103128;28;19993;-81
2021/01/02 11:14:19;;;;;;;;;;;;;;;28.32;15.71;97971.41;5103707;28;19916;-81
2021/01/02 11:16:47;;;;;;;;;;;;;;;28.52;16.06;97973.81;5111975;28;19916;-81
2021/01/02 11:19:23;;;;;;;;;;;;;;;28.62;15.49;97975.44;5105518;28;19968;-81
2021/01/02 11:21:51;;;;;;;;;;;;;;;28.59;16.22;97971.50;5103635;28;19924;-81
2021/01/02 11:24:18;;;;;;;;;;;;;;;28.83;15.96;97974.53;5111994;28;20282;-81
2021/01/02 11:26:45;;;;;;;;;;;;;;;28.18;16.00;97968.38;5105097;28;19916;-81
2021/01/02 11:29:12;;;;;;;;;;;;;;;28.42;15.71;97969.41;5100192;28;20053;-81
2021/01/02 11:31:38;;;;;;;;;;;;;;;28.38;15.86;97972.34;5108817;28;19922;-82
2021/01/02 11:34:04;;;;;;;;;;;;;;;28.44;16.48;97969.72;5101593;28;20006;-81
2021/01/02 11:36:30;;;;;;;;;;;;;;;28.15;15.77;97960.81;5094328;28;20295;-81
2021/01/02 11:38:56;;;;;;;;;;;;;;;27.61;16.45;97956.44;5108405;28;19923;-82
2021/01/02 11:41:31;;;;;;;;;;;;;;;27.26;17.28;97961.34;5109213;28;19927;-81
2021/01/02 11:43:56;;;;;;;;;;;;;;;27.26;17.01;97966.19;5109303;28;19969;-81
2021/01/02 11:46:30;;;;;;;;;;;;;;;26.41;17.34;97960.72;5101158;28;19915;-82
2021/01/02 11:48:56;;;;;;;;;;;;;;;26.91;17.60;97961.88;5105609;28;19919;-81
2021/01/02 11:51:22;;;;;;;;;;;;;;;27.28;16.71;97960.91;5080686;28;19918;-81
2021/01/02 11:53:48;;;;;;;;;;;;;;;26.07;17.94;97958.56;5108940;28;19920;-81
2021/01/02 11:56:17;;;;;;;;;;;;;;;27.35;17.14;97952.97;5105533;28;19915;-81
2021/01/02 11:58:44;;;;;;;;;;;;;;;28.17;16.19;97953.44;5109683;28;20383;-81
2021/01/02 12:01:09;;;;;;;;;;;;;;;27.66;16.65;97949.41;5108089;28;19915;-81
2021/01/02 12:03:35;;;;;;;;;;;;;;;28.27;16.57;97952.25;5107238;28;20303;-81
2021/01/02 12:06:01;;;;;;;;;;;;;;;28.73;15.69;97956.78;5109895;28;19958;-81
2021/01/02 12:08:27;;;;;;;;;;;;;;;28.41;16.08;97962.16;5106073;28;19969;-81
2021/01/02 12:10:53;;;;;;;;;;;;;;;27.99;16.38;97945.72;5103136;28;19919;-81
2021/01/02 12:13:19;;;;;;;;;;;;;;;27.68;16.46;97944.88;5093134;28;19919;-81
2021/01/02 12:15:48;;;;;;;;;;;;;;;27.28;16.74;97944.00;5100790;28;20363;-80
2021/01/02 12:18:14;;;;;;;;;;;;;;;26.19;17.94;97944.97;5108297;28;20018;-81
2021/01/02 12:20:43;;;;;;;;;;;;;;;27.35;17.27;97947.31;5104083;28;20611;-81
2021/01/02 12:23:09;;;;;;;;;;;;;;;27.22;17.17;97945.81;5113279;28;19916;-82
2021/01/02 12:25:35;;;;;;;;;;;;;;;27.23;17.08;97955.88;5107952;28;20321;-82
2021/01/02 12:28:01;;;;;;;;;;;;;;;27.42;17.29;97949.16;5106139;28;19954;-82
2021/01/02 12:30:28;;;;;;;;;;;;;;;27.33;17.22;97957.47;5110687;28;20436;-83
2021/01/02 12:32:55;;;;;;;;;;;;;;;27.15;17.06;97951.72;5104921;28;19923;-82
2021/01/02 12:35:21;;;;;;;;;;;;;;;27.13;17.19;97957.81;5105430;28;20440;-82
2021/01/02 12:37:47;;;;;;;;;;;;;;;26.77;17.49;97957.50;5107188;28;19919;-83
2021/01/02 12:40:13;;;;;;;;;;;;;;;25.18;18.67;97959.63;5106430;28;19965;-82
2021/01/02 12:42:42;;;;;;;;;;;;;;;25.74;18.59;97950.81;5110621;28;19947;-83
2021/01/02 12:45:10;;;;;;;;;;;;;;;25.91;18.27;97955.88;5106231;28;19963;-82
2021/01/02 12:47:36;;;;;;;;;;;;;;;26.34;18.17;97958.13;5116570;28;19911;-82
2021/01/02 12:50:04;;;;;;;;;;;;;;;26.52;17.83;97954.72;5110090;28;19958;-83
2021/01/02 12:52:30;;;;;;;;;;;;;;;25.12;19.12;97964.22;5105464;28;19961;-83
2021/01/02 12:54:56;;;;;;;;;;;;;;;25.68;18.58;97952.56;5093050;28;19928;-83
2021/01/02 12:57:22;;;;;;;;;;;;;;;25.59;18.62;97950.44;5107975;28;20329;-83